sensor_id;sensor_type;location;lat;lon;timestamp;P1;durP1;ratioP1;P2;durP2;ratioP2
24873;SDS011;12945;42.648;23.370;2023-12-29T00:01:43;36.85;;;17.08;;
24873;SDS011;12945;42.648;23.370;2023-12-29T00:04:09;36.40;;;18.20;;
24873;SDS011;12945;42.648;23.370;2023-12-29T00:06:37;43.80;;;20.23;;
24873;SDS011;12945;42.648;23.370;2023-12-29T00:09:02;49.53;;;24.00;;
24873;SDS011;12945;42.648;23.370;2023-12-29T00:11:27;47.58;;;23.52;;
24873;SDS011;12945;42.648;23.370;2023-12-29T00:13:53;51.35;;;24.13;;
24873;SDS011;12945;42.648;23.370;2023-12-29T00:16:18;49.25;;;24.48;;
24873;SDS011;12945;42.648;23.370;2023-12-29T00:18:43;50.50;;;23.83;;
24873;SDS011;12945;42.648;23.370;2023-12-29T00:21:08;49.25;;;24.23;;
24873;SDS011;12945;42.648;23.370;2023-12-29T00:23:34;46.03;;;23.92;;
24873;SDS011;12945;42.648;23.370;2023-12-29T00:25:59;50.92;;;23.27;;
24873;SDS011;12945;42.648;23.370;2023-12-29T00:28:24;46.67;;;23.38;;
24873;SDS011;12945;42.648;23.370;2023-12-29T00:30:49;50.67;;;25.98;;
24873;SDS011;12945;42.648;23.370;2023-12-29T00:33:15;51.20;;;26.08;;
24873;SDS011;12945;42.648;23.370;2023-12-29T00:35:40;54.30;;;28.45;;
24873;SDS011;12945;42.648;23.370;2023-12-29T00:38:05;51.75;;;25.80;;
24873;SDS011;12945;42.648;23.370;2023-12-29T00:40:31;53.20;;;25.52;;
24873;SDS011;12945;42.648;23.370;2023-12-29T00:42:56;51.90;;;25.13;;
24873;SDS011;12945;42.648;23.370;2023-12-29T00:45:22;48.33;;;25.40;;
24873;SDS011;12945;42.648;23.370;2023-12-29T00:47:47;47.72;;;24.83;;
24873;SDS011;12945;42.648;23.370;2023-12-29T00:50:13;48.17;;;25.65;;
24873;SDS011;12945;42.648;23.370;2023-12-29T00:52:39;48.08;;;24.60;;
24873;SDS011;12945;42.648;23.370;2023-12-29T00:55:04;42.22;;;22.80;;
24873;SDS011;12945;42.648;23.370;2023-12-29T00:57:29;42.33;;;19.83;;
24873;SDS011;12945;42.648;23.370;2023-12-29T00:59:54;33.60;;;16.38;;
24873;SDS011;12945;42.648;23.370;2023-12-29T01:02:20;30.08;;;15.82;;
24873;SDS011;12945;42.648;23.370;2023-12-29T01:04:45;29.83;;;15.25;;
24873;SDS011;12945;42.648;23.370;2023-12-29T01:07:10;34.35;;;17.65;;
24873;SDS011;12945;42.648;23.370;2023-12-29T01:09:39;43.78;;;19.27;;
24873;SDS011;12945;42.648;23.370;2023-12-29T01:12:05;28.93;;;14.53;;
24873;SDS011;12945;42.648;23.370;2023-12-29T01:14:30;33.50;;;17.33;;
24873;SDS011;12945;42.648;23.370;2023-12-29T01:16:56;37.35;;;19.02;;
24873;SDS011;12945;42.648;23.370;2023-12-29T01:19:21;34.67;;;18.33;;
24873;SDS011;12945;42.648;23.370;2023-12-29T01:21:46;37.42;;;18.45;;
24873;SDS011;12945;42.648;23.370;2023-12-29T01:24:12;33.08;;;19.17;;
24873;SDS011;12945;42.648;23.370;2023-12-29T01:26:37;34.70;;;19.85;;
24873;SDS011;12945;42.648;23.370;2023-12-29T01:29:03;38.35;;;19.63;;
24873;SDS011;12945;42.648;23.370;2023-12-29T01:31:29;34.50;;;18.95;;
24873;SDS011;12945;42.648;23.370;2023-12-29T01:33:55;37.83;;;19.30;;
24873;SDS011;12945;42.648;23.370;2023-12-29T01:36:20;34.17;;;18.27;;
24873;SDS011;12945;42.648;23.370;2023-12-29T01:38:46;35.40;;;18.70;;
24873;SDS011;12945;42.648;23.370;2023-12-29T01:41:11;34.33;;;17.65;;
24873;SDS011;12945;42.648;23.370;2023-12-29T01:44:02;30.13;;;16.77;;
24873;SDS011;12945;42.648;23.370;2023-12-29T01:46:22;29.85;;;16.63;;
24873;SDS011;12945;42.648;23.370;2023-12-29T01:48:47;39.03;;;17.58;;
24873;SDS011;12945;42.648;23.370;2023-12-29T01:51:13;45.75;;;22.50;;
24873;SDS011;12945;42.648;23.370;2023-12-29T01:53:39;39.75;;;20.77;;
24873;SDS011;12945;42.648;23.370;2023-12-29T01:56:04;39.65;;;20.63;;
24873;SDS011;12945;42.648;23.370;2023-12-29T01:58:29;49.30;;;23.02;;
24873;SDS011;12945;42.648;23.370;2023-12-29T02:00:55;46.17;;;23.85;;
24873;SDS011;12945;42.648;23.370;2023-12-29T02:03:20;41.63;;;20.95;;
24873;SDS011;12945;42.648;23.370;2023-12-29T02:05:45;42.03;;;20.67;;
24873;SDS011;12945;42.648;23.370;2023-12-29T02:08:11;37.30;;;18.90;;
24873;SDS011;12945;42.648;23.370;2023-12-29T02:10:37;38.30;;;20.17;;
24873;SDS011;12945;42.648;23.370;2023-12-29T02:13:02;36.90;;;19.20;;
24873;SDS011;12945;42.648;23.370;2023-12-29T02:15:27;37.50;;;20.85;;
24873;SDS011;12945;42.648;23.370;2023-12-29T02:17:56;48.58;;;21.75;;
24873;SDS011;12945;42.648;23.370;2023-12-29T02:20:22;39.75;;;21.60;;
24873;SDS011;12945;42.648;23.370;2023-12-29T02:22:48;39.10;;;20.15;;
24873;SDS011;12945;42.648;23.370;2023-12-29T02:25:13;38.95;;;20.73;;
24873;SDS011;12945;42.648;23.370;2023-12-29T02:32:42;41.08;;;20.65;;
24873;SDS011;12945;42.648;23.370;2023-12-29T02:35:12;37.42;;;18.98;;
24873;SDS011;12945;42.648;23.370;2023-12-29T02:37:38;34.88;;;18.70;;
24873;SDS011;12945;42.648;23.370;2023-12-29T02:40:04;33.53;;;18.63;;
24873;SDS011;12945;42.648;23.370;2023-12-29T02:42:29;33.05;;;18.33;;
24873;SDS011;12945;42.648;23.370;2023-12-29T02:44:55;33.63;;;17.40;;
24873;SDS011;12945;42.648;23.370;2023-12-29T02:47:20;33.10;;;16.33;;
24873;SDS011;12945;42.648;23.370;2023-12-29T02:49:46;29.75;;;16.88;;
24873;SDS011;12945;42.648;23.370;2023-12-29T02:52:12;35.95;;;18.98;;
24873;SDS011;12945;42.648;23.370;2023-12-29T02:54:37;40.97;;;20.48;;
24873;SDS011;12945;42.648;23.370;2023-12-29T02:57:02;40.20;;;20.05;;
24873;SDS011;12945;42.648;23.370;2023-12-29T02:59:28;37.00;;;20.73;;
24873;SDS011;12945;42.648;23.370;2023-12-29T03:01:53;36.95;;;21.30;;
24873;SDS011;12945;42.648;23.370;2023-12-29T03:04:18;41.53;;;20.48;;
24873;SDS011;12945;42.648;23.370;2023-12-29T03:06:43;39.00;;;19.85;;
24873;SDS011;12945;42.648;23.370;2023-12-29T03:09:09;41.53;;;20.17;;
24873;SDS011;12945;42.648;23.370;2023-12-29T03:11:34;36.38;;;19.13;;
24873;SDS011;12945;42.648;23.370;2023-12-29T03:13:59;42.15;;;21.30;;
24873;SDS011;12945;42.648;23.370;2023-12-29T03:16:24;31.38;;;17.13;;
24873;SDS011;12945;42.648;23.370;2023-12-29T03:18:50;33.88;;;17.38;;
24873;SDS011;12945;42.648;23.370;2023-12-29T03:21:15;39.95;;;22.27;;
24873;SDS011;12945;42.648;23.370;2023-12-29T03:23:40;52.78;;;23.45;;
24873;SDS011;12945;42.648;23.370;2023-12-29T03:26:05;61.58;;;32.55;;
24873;SDS011;12945;42.648;23.370;2023-12-29T03:28:30;48.10;;;26.42;;
24873;SDS011;12945;42.648;23.370;2023-12-29T03:30:56;38.00;;;20.15;;
24873;SDS011;12945;42.648;23.370;2023-12-29T03:33:21;60.33;;;31.52;;
24873;SDS011;12945;42.648;23.370;2023-12-29T03:35:46;84.75;;;40.58;;
24873;SDS011;12945;42.648;23.370;2023-12-29T03:38:12;78.93;;;41.28;;
24873;SDS011;12945;42.648;23.370;2023-12-29T03:40:37;76.90;;;39.08;;
24873;SDS011;12945;42.648;23.370;2023-12-29T03:43:03;84.75;;;40.65;;
24873;SDS011;12945;42.648;23.370;2023-12-29T03:45:28;84.60;;;38.75;;
24873;SDS011;12945;42.648;23.370;2023-12-29T03:47:53;75.03;;;37.20;;
24873;SDS011;12945;42.648;23.370;2023-12-29T03:50:18;72.95;;;34.38;;
24873;SDS011;12945;42.648;23.370;2023-12-29T03:52:44;60.00;;;28.40;;
24873;SDS011;12945;42.648;23.370;2023-12-29T03:55:09;59.42;;;28.50;;
24873;SDS011;12945;42.648;23.370;2023-12-29T03:57:36;72.00;;;31.77;;
24873;SDS011;12945;42.648;23.370;2023-12-29T04:00:01;64.97;;;31.35;;
24873;SDS011;12945;42.648;23.370;2023-12-29T04:02:26;61.20;;;29.67;;
24873;SDS011;12945;42.648;23.370;2023-12-29T04:04:52;54.35;;;29.67;;
24873;SDS011;12945;42.648;23.370;2023-12-29T04:07:17;45.90;;;23.15;;
24873;SDS011;12945;42.648;23.370;2023-12-29T04:09:42;41.00;;;22.08;;
24873;SDS011;12945;42.648;23.370;2023-12-29T04:12:08;37.90;;;21.23;;
24873;SDS011;12945;42.648;23.370;2023-12-29T04:14:33;40.92;;;20.70;;
24873;SDS011;12945;42.648;23.370;2023-12-29T04:16:58;46.80;;;23.27;;
24873;SDS011;12945;42.648;23.370;2023-12-29T04:19:25;37.55;;;20.65;;
24873;SDS011;12945;42.648;23.370;2023-12-29T04:21:50;42.05;;;20.90;;
24873;SDS011;12945;42.648;23.370;2023-12-29T04:24:15;42.65;;;20.88;;
24873;SDS011;12945;42.648;23.370;2023-12-29T04:26:41;37.33;;;20.35;;
24873;SDS011;12945;42.648;23.370;2023-12-29T04:29:06;33.08;;;17.33;;
24873;SDS011;12945;42.648;23.370;2023-12-29T04:31:31;35.67;;;19.25;;
24873;SDS011;12945;42.648;23.370;2023-12-29T04:33:56;40.75;;;20.63;;
24873;SDS011;12945;42.648;23.370;2023-12-29T04:36:22;37.30;;;17.98;;
24873;SDS011;12945;42.648;23.370;2023-12-29T04:38:47;30.63;;;15.10;;
24873;SDS011;12945;42.648;23.370;2023-12-29T04:41:12;46.75;;;22.88;;
24873;SDS011;12945;42.648;23.370;2023-12-29T04:43:38;37.70;;;20.23;;
24873;SDS011;12945;42.648;23.370;2023-12-29T04:46:03;26.77;;;14.90;;
24873;SDS011;12945;42.648;23.370;2023-12-29T04:48:28;32.55;;;15.82;;
24873;SDS011;12945;42.648;23.370;2023-12-29T04:50:54;37.33;;;18.83;;
24873;SDS011;12945;42.648;23.370;2023-12-29T04:53:19;36.58;;;18.80;;
24873;SDS011;12945;42.648;23.370;2023-12-29T04:55:44;35.65;;;17.73;;
24873;SDS011;12945;42.648;23.370;2023-12-29T04:58:10;37.88;;;18.88;;
24873;SDS011;12945;42.648;23.370;2023-12-29T05:00:35;33.10;;;18.35;;
24873;SDS011;12945;42.648;23.370;2023-12-29T05:03:00;35.30;;;18.05;;
24873;SDS011;12945;42.648;23.370;2023-12-29T05:05:25;37.17;;;19.83;;
24873;SDS011;12945;42.648;23.370;2023-12-29T05:07:51;37.30;;;20.20;;
24873;SDS011;12945;42.648;23.370;2023-12-29T05:10:16;31.75;;;18.20;;
24873;SDS011;12945;42.648;23.370;2023-12-29T05:12:41;31.55;;;17.23;;
24873;SDS011;12945;42.648;23.370;2023-12-29T05:15:06;32.53;;;17.55;;
24873;SDS011;12945;42.648;23.370;2023-12-29T05:17:32;34.75;;;19.27;;
24873;SDS011;12945;42.648;23.370;2023-12-29T05:19:57;34.17;;;18.67;;
24873;SDS011;12945;42.648;23.370;2023-12-29T05:22:22;32.35;;;16.38;;
24873;SDS011;12945;42.648;23.370;2023-12-29T05:24:48;31.33;;;15.50;;
24873;SDS011;12945;42.648;23.370;2023-12-29T05:27:13;31.65;;;17.80;;
24873;SDS011;12945;42.648;23.370;2023-12-29T05:29:38;30.13;;;17.17;;
24873;SDS011;12945;42.648;23.370;2023-12-29T05:32:04;30.77;;;17.73;;
24873;SDS011;12945;42.648;23.370;2023-12-29T05:34:30;39.60;;;20.55;;
24873;SDS011;12945;42.648;23.370;2023-12-29T05:36:55;35.88;;;18.15;;
24873;SDS011;12945;42.648;23.370;2023-12-29T05:39:20;32.92;;;18.30;;
24873;SDS011;12945;42.648;23.370;2023-12-29T05:41:45;38.63;;;19.02;;
24873;SDS011;12945;42.648;23.370;2023-12-29T05:44:11;33.72;;;19.95;;
24873;SDS011;12945;42.648;23.370;2023-12-29T05:46:36;39.58;;;20.25;;
24873;SDS011;12945;42.648;23.370;2023-12-29T05:49:01;47.88;;;25.17;;
24873;SDS011;12945;42.648;23.370;2023-12-29T05:51:27;48.95;;;26.00;;
24873;SDS011;12945;42.648;23.370;2023-12-29T05:53:52;53.97;;;27.27;;
24873;SDS011;12945;42.648;23.370;2023-12-29T05:56:17;71.97;;;36.35;;
24873;SDS011;12945;42.648;23.370;2023-12-29T05:58:43;77.07;;;40.50;;
24873;SDS011;12945;42.648;23.370;2023-12-29T06:01:08;71.72;;;35.58;;
24873;SDS011;12945;42.648;23.370;2023-12-29T06:03:34;77.80;;;39.67;;
24873;SDS011;12945;42.648;23.370;2023-12-29T06:05:59;68.40;;;35.42;;
24873;SDS011;12945;42.648;23.370;2023-12-29T06:08:24;60.50;;;29.52;;
24873;SDS011;12945;42.648;23.370;2023-12-29T06:10:50;54.70;;;26.27;;
24873;SDS011;12945;42.648;23.370;2023-12-29T06:13:15;66.35;;;29.92;;
24873;SDS011;12945;42.648;23.370;2023-12-29T06:15:40;51.92;;;26.67;;
24873;SDS011;12945;42.648;23.370;2023-12-29T06:18:05;52.67;;;27.65;;
24873;SDS011;12945;42.648;23.370;2023-12-29T06:20:31;38.53;;;19.73;;
24873;SDS011;12945;42.648;23.370;2023-12-29T06:22:56;48.55;;;21.75;;
24873;SDS011;12945;42.648;23.370;2023-12-29T06:25:21;42.22;;;20.80;;
24873;SDS011;12945;42.648;23.370;2023-12-29T06:27:47;41.67;;;21.48;;
24873;SDS011;12945;42.648;23.370;2023-12-29T06:30:13;41.45;;;22.63;;
24873;SDS011;12945;42.648;23.370;2023-12-29T06:32:39;41.35;;;22.92;;
24873;SDS011;12945;42.648;23.370;2023-12-29T06:35:05;44.55;;;22.48;;
24873;SDS011;12945;42.648;23.370;2023-12-29T06:37:30;42.40;;;23.10;;
24873;SDS011;12945;42.648;23.370;2023-12-29T06:39:56;46.28;;;24.42;;
24873;SDS011;12945;42.648;23.370;2023-12-29T06:42:21;48.17;;;25.27;;
24873;SDS011;12945;42.648;23.370;2023-12-29T06:44:47;51.45;;;29.90;;
24873;SDS011;12945;42.648;23.370;2023-12-29T06:47:13;63.53;;;29.75;;
24873;SDS011;12945;42.648;23.370;2023-12-29T06:49:38;50.15;;;27.15;;
24873;SDS011;12945;42.648;23.370;2023-12-29T06:52:04;59.72;;;33.33;;
24873;SDS011;12945;42.648;23.370;2023-12-29T06:54:29;65.15;;;32.97;;
24873;SDS011;12945;42.648;23.370;2023-12-29T06:56:54;58.35;;;30.95;;
24873;SDS011;12945;42.648;23.370;2023-12-29T06:59:20;57.00;;;29.48;;
24873;SDS011;12945;42.648;23.370;2023-12-29T07:01:46;52.47;;;29.75;;
24873;SDS011;12945;42.648;23.370;2023-12-29T07:04:11;57.08;;;29.02;;
24873;SDS011;12945;42.648;23.370;2023-12-29T07:06:37;53.80;;;29.48;;
24873;SDS011;12945;42.648;23.370;2023-12-29T07:09:02;54.22;;;29.08;;
24873;SDS011;12945;42.648;23.370;2023-12-29T07:11:28;47.67;;;27.83;;
24873;SDS011;12945;42.648;23.370;2023-12-29T07:13:53;48.50;;;27.52;;
24873;SDS011;12945;42.648;23.370;2023-12-29T07:16:19;46.30;;;25.10;;
24873;SDS011;12945;42.648;23.370;2023-12-29T07:18:45;45.60;;;24.23;;
24873;SDS011;12945;42.648;23.370;2023-12-29T07:21:11;49.22;;;25.48;;
24873;SDS011;12945;42.648;23.370;2023-12-29T07:23:37;50.42;;;22.95;;
24873;SDS011;12945;42.648;23.370;2023-12-29T07:26:02;58.72;;;31.83;;
24873;SDS011;12945;42.648;23.370;2023-12-29T07:28:28;64.00;;;32.00;;
24873;SDS011;12945;42.648;23.370;2023-12-29T07:30:53;49.90;;;25.65;;
24873;SDS011;12945;42.648;23.370;2023-12-29T07:33:18;42.55;;;23.42;;
24873;SDS011;12945;42.648;23.370;2023-12-29T07:35:43;39.28;;;21.92;;
24873;SDS011;12945;42.648;23.370;2023-12-29T07:38:09;39.30;;;22.15;;
24873;SDS011;12945;42.648;23.370;2023-12-29T07:40:34;46.55;;;25.20;;
24873;SDS011;12945;42.648;23.370;2023-12-29T07:43:00;47.97;;;23.98;;
24873;SDS011;12945;42.648;23.370;2023-12-29T07:45:25;49.42;;;26.23;;
24873;SDS011;12945;42.648;23.370;2023-12-29T07:47:50;50.42;;;26.73;;
24873;SDS011;12945;42.648;23.370;2023-12-29T07:50:15;49.72;;;26.10;;
24873;SDS011;12945;42.648;23.370;2023-12-29T07:52:42;51.33;;;26.13;;
24873;SDS011;12945;42.648;23.370;2023-12-29T07:55:07;45.50;;;25.33;;
24873;SDS011;12945;42.648;23.370;2023-12-29T07:57:32;51.92;;;27.65;;
24873;SDS011;12945;42.648;23.370;2023-12-29T07:59:58;54.00;;;29.33;;
24873;SDS011;12945;42.648;23.370;2023-12-29T08:02:23;54.38;;;31.48;;
24873;SDS011;12945;42.648;23.370;2023-12-29T08:04:48;59.92;;;33.63;;
24873;SDS011;12945;42.648;23.370;2023-12-29T08:07:13;64.30;;;35.85;;
24873;SDS011;12945;42.648;23.370;2023-12-29T08:09:39;69.55;;;36.13;;
24873;SDS011;12945;42.648;23.370;2023-12-29T08:12:04;70.40;;;38.25;;
24873;SDS011;12945;42.648;23.370;2023-12-29T08:14:30;67.82;;;38.22;;
24873;SDS011;12945;42.648;23.370;2023-12-29T08:16:55;64.95;;;36.55;;
24873;SDS011;12945;42.648;23.370;2023-12-29T08:19:22;67.93;;;35.75;;
24873;SDS011;12945;42.648;23.370;2023-12-29T08:21:47;65.13;;;35.55;;
24873;SDS011;12945;42.648;23.370;2023-12-29T08:24:13;66.18;;;36.33;;
24873;SDS011;12945;42.648;23.370;2023-12-29T08:26:44;56.78;;;34.97;;
24873;SDS011;12945;42.648;23.370;2023-12-29T08:29:10;73.90;;;37.38;;
24873;SDS011;12945;42.648;23.370;2023-12-29T08:31:36;85.35;;;46.20;;
24873;SDS011;12945;42.648;23.370;2023-12-29T08:34:01;83.50;;;48.38;;
24873;SDS011;12945;42.648;23.370;2023-12-29T08:36:26;91.00;;;50.58;;
24873;SDS011;12945;42.648;23.370;2023-12-29T08:38:51;96.65;;;49.92;;
24873;SDS011;12945;42.648;23.370;2023-12-29T08:41:18;89.03;;;50.67;;
24873;SDS011;12945;42.648;23.370;2023-12-29T08:43:43;88.93;;;47.95;;
24873;SDS011;12945;42.648;23.370;2023-12-29T08:46:09;81.43;;;46.85;;
24873;SDS011;12945;42.648;23.370;2023-12-29T08:48:34;84.10;;;45.58;;
24873;SDS011;12945;42.648;23.370;2023-12-29T08:51:00;87.32;;;43.00;;
24873;SDS011;12945;42.648;23.370;2023-12-29T08:53:26;78.50;;;40.97;;
24873;SDS011;12945;42.648;23.370;2023-12-29T08:55:51;67.30;;;39.30;;
24873;SDS011;12945;42.648;23.370;2023-12-29T08:58:16;67.57;;;36.80;;
24873;SDS011;12945;42.648;23.370;2023-12-29T09:00:42;70.88;;;38.35;;
24873;SDS011;12945;42.648;23.370;2023-12-29T09:03:07;75.07;;;39.47;;
24873;SDS011;12945;42.648;23.370;2023-12-29T09:05:32;69.78;;;38.75;;
24873;SDS011;12945;42.648;23.370;2023-12-29T09:07:57;62.17;;;35.22;;
24873;SDS011;12945;42.648;23.370;2023-12-29T09:10:23;74.53;;;38.35;;
24873;SDS011;12945;42.648;23.370;2023-12-29T09:12:48;74.28;;;37.17;;
24873;SDS011;12945;42.648;23.370;2023-12-29T09:15:14;67.07;;;35.42;;
24873;SDS011;12945;42.648;23.370;2023-12-29T09:17:39;71.40;;;35.85;;
24873;SDS011;12945;42.648;23.370;2023-12-29T09:20:05;68.45;;;35.25;;
24873;SDS011;12945;42.648;23.370;2023-12-29T09:22:31;55.50;;;33.53;;
24873;SDS011;12945;42.648;23.370;2023-12-29T09:24:56;62.85;;;35.90;;
24873;SDS011;12945;42.648;23.370;2023-12-29T09:27:22;56.67;;;33.72;;
24873;SDS011;12945;42.648;23.370;2023-12-29T09:29:47;63.15;;;33.47;;
24873;SDS011;12945;42.648;23.370;2023-12-29T09:32:12;58.67;;;33.45;;
24873;SDS011;12945;42.648;23.370;2023-12-29T09:34:38;55.88;;;32.42;;
24873;SDS011;12945;42.648;23.370;2023-12-29T09:37:03;50.88;;;30.58;;
24873;SDS011;12945;42.648;23.370;2023-12-29T09:39:28;50.88;;;27.85;;
24873;SDS011;12945;42.648;23.370;2023-12-29T09:41:57;53.78;;;30.48;;
24873;SDS011;12945;42.648;23.370;2023-12-29T09:44:22;46.42;;;29.45;;
24873;SDS011;12945;42.648;23.370;2023-12-29T09:46:49;50.78;;;27.80;;
24873;SDS011;12945;42.648;23.370;2023-12-29T09:49:14;45.72;;;26.25;;
24873;SDS011;12945;42.648;23.370;2023-12-29T09:51:41;47.78;;;27.30;;
24873;SDS011;12945;42.648;23.370;2023-12-29T09:54:08;51.72;;;29.40;;
24873;SDS011;12945;42.648;23.370;2023-12-29T09:56:33;48.20;;;27.67;;
24873;SDS011;12945;42.648;23.370;2023-12-29T09:58:59;47.60;;;27.50;;
24873;SDS011;12945;42.648;23.370;2023-12-29T10:01:24;40.70;;;25.13;;
24873;SDS011;12945;42.648;23.370;2023-12-29T10:03:52;41.17;;;25.88;;
24873;SDS011;12945;42.648;23.370;2023-12-29T10:06:19;42.65;;;26.27;;
24873;SDS011;12945;42.648;23.370;2023-12-29T10:08:46;39.65;;;25.40;;
24873;SDS011;12945;42.648;23.370;2023-12-29T10:11:13;45.08;;;25.48;;
24873;SDS011;12945;42.648;23.370;2023-12-29T10:13:40;51.60;;;30.67;;
24873;SDS011;12945;42.648;23.370;2023-12-29T10:18:35;54.28;;;34.05;;
24873;SDS011;12945;42.648;23.370;2023-12-29T10:23:40;58.92;;;36.05;;
24873;SDS011;12945;42.648;23.370;2023-12-29T10:26:07;58.00;;;35.45;;
24873;SDS011;12945;42.648;23.370;2023-12-29T10:28:35;69.85;;;36.38;;
24873;SDS011;12945;42.648;23.370;2023-12-29T10:31:00;60.40;;;34.08;;
24873;SDS011;12945;42.648;23.370;2023-12-29T10:33:26;57.15;;;35.58;;
24873;SDS011;12945;42.648;23.370;2023-12-29T10:35:57;46.70;;;30.75;;
24873;SDS011;12945;42.648;23.370;2023-12-29T10:38:27;49.80;;;31.85;;
24873;SDS011;12945;42.648;23.370;2023-12-29T10:40:52;48.42;;;29.70;;
24873;SDS011;12945;42.648;23.370;2023-12-29T10:43:23;45.65;;;29.50;;
24873;SDS011;12945;42.648;23.370;2023-12-29T10:45:49;50.53;;;27.63;;
24873;SDS011;12945;42.648;23.370;2023-12-29T10:48:21;51.90;;;30.77;;
24873;SDS011;12945;42.648;23.370;2023-12-29T10:50:46;42.72;;;27.05;;
24873;SDS011;12945;42.648;23.370;2023-12-29T10:53:12;45.75;;;25.15;;
24873;SDS011;12945;42.648;23.370;2023-12-29T10:55:37;46.40;;;29.90;;
24873;SDS011;12945;42.648;23.370;2023-12-29T10:58:03;51.33;;;30.30;;
24873;SDS011;12945;42.648;23.370;2023-12-29T11:00:31;62.10;;;31.33;;
24873;SDS011;12945;42.648;23.370;2023-12-29T11:02:57;50.83;;;30.55;;
24873;SDS011;12945;42.648;23.370;2023-12-29T11:05:24;55.65;;;31.65;;
24873;SDS011;12945;42.648;23.370;2023-12-29T11:07:50;49.97;;;31.30;;
24873;SDS011;12945;42.648;23.370;2023-12-29T11:10:18;49.60;;;30.20;;
24873;SDS011;12945;42.648;23.370;2023-12-29T11:12:45;53.88;;;30.48;;
24873;SDS011;12945;42.648;23.370;2023-12-29T11:15:10;45.47;;;28.90;;
24873;SDS011;12945;42.648;23.370;2023-12-29T11:17:38;42.92;;;27.92;;
24873;SDS011;12945;42.648;23.370;2023-12-29T11:20:03;48.65;;;30.17;;
24873;SDS011;12945;42.648;23.370;2023-12-29T11:22:29;55.42;;;31.42;;
24873;SDS011;12945;42.648;23.370;2023-12-29T11:24:55;45.20;;;29.90;;
24873;SDS011;12945;42.648;23.370;2023-12-29T11:27:23;43.63;;;31.17;;
24873;SDS011;12945;42.648;23.370;2023-12-29T11:29:49;50.78;;;30.15;;
24873;SDS011;12945;42.648;23.370;2023-12-29T11:32:16;45.28;;;31.50;;
24873;SDS011;12945;42.648;23.370;2023-12-29T11:34:44;53.53;;;31.23;;
24873;SDS011;12945;42.648;23.370;2023-12-29T11:39:59;48.42;;;29.60;;
24873;SDS011;12945;42.648;23.370;2023-12-29T11:45:28;51.25;;;30.48;;
24873;SDS011;12945;42.648;23.370;2023-12-29T11:47:53;43.47;;;30.33;;
24873;SDS011;12945;42.648;23.370;2023-12-29T11:50:27;45.28;;;29.73;;
24873;SDS011;12945;42.648;23.370;2023-12-29T11:52:53;45.28;;;29.25;;
24873;SDS011;12945;42.648;23.370;2023-12-29T11:55:18;50.72;;;29.48;;
24873;SDS011;12945;42.648;23.370;2023-12-29T11:57:44;43.83;;;28.50;;
24873;SDS011;12945;42.648;23.370;2023-12-29T12:00:10;48.63;;;29.45;;
24873;SDS011;12945;42.648;23.370;2023-12-29T12:02:35;48.60;;;29.95;;
24873;SDS011;12945;42.648;23.370;2023-12-29T12:05:01;47.35;;;30.23;;
24873;SDS011;12945;42.648;23.370;2023-12-29T12:09:52;45.45;;;27.63;;
24873;SDS011;12945;42.648;23.370;2023-12-29T12:12:38;50.47;;;28.40;;
24873;SDS011;12945;42.648;23.370;2023-12-29T12:15:04;43.03;;;28.63;;
24873;SDS011;12945;42.648;23.370;2023-12-29T12:17:50;45.63;;;27.10;;
24873;SDS011;12945;42.648;23.370;2023-12-29T12:20:15;44.83;;;28.45;;
24873;SDS011;12945;42.648;23.370;2023-12-29T12:22:41;44.30;;;28.25;;
24873;SDS011;12945;42.648;23.370;2023-12-29T12:25:07;41.08;;;27.80;;
24873;SDS011;12945;42.648;23.370;2023-12-29T12:27:32;47.92;;;28.33;;
24873;SDS011;12945;42.648;23.370;2023-12-29T12:29:58;49.72;;;28.25;;
24873;SDS011;12945;42.648;23.370;2023-12-29T12:32:27;37.35;;;24.30;;
24873;SDS011;12945;42.648;23.370;2023-12-29T12:34:53;37.22;;;22.55;;
24873;SDS011;12945;42.648;23.370;2023-12-29T12:39:46;38.60;;;23.88;;
24873;SDS011;12945;42.648;23.370;2023-12-29T12:42:13;45.45;;;25.05;;
24873;SDS011;12945;42.648;23.370;2023-12-29T12:44:41;38.38;;;24.98;;
24873;SDS011;12945;42.648;23.370;2023-12-29T12:47:08;33.55;;;21.20;;
24873;SDS011;12945;42.648;23.370;2023-12-29T12:49:33;38.47;;;23.00;;
24873;SDS011;12945;42.648;23.370;2023-12-29T12:51:59;42.33;;;24.25;;
24873;SDS011;12945;42.648;23.370;2023-12-29T12:54:24;42.30;;;24.35;;
24873;SDS011;12945;42.648;23.370;2023-12-29T12:56:50;40.08;;;23.45;;
24873;SDS011;12945;42.648;23.370;2023-12-29T12:59:15;45.22;;;23.15;;
24873;SDS011;12945;42.648;23.370;2023-12-29T13:01:41;33.38;;;22.85;;
24873;SDS011;12945;42.648;23.370;2023-12-29T13:04:07;42.65;;;23.52;;
24873;SDS011;12945;42.648;23.370;2023-12-29T13:06:33;35.05;;;23.58;;
24873;SDS011;12945;42.648;23.370;2023-12-29T13:08:59;37.55;;;24.13;;
24873;SDS011;12945;42.648;23.370;2023-12-29T13:11:25;41.35;;;23.30;;
24873;SDS011;12945;42.648;23.370;2023-12-29T13:13:50;41.70;;;24.10;;
24873;SDS011;12945;42.648;23.370;2023-12-29T13:16:34;43.13;;;23.80;;
24873;SDS011;12945;42.648;23.370;2023-12-29T13:21:42;35.85;;;21.70;;
24873;SDS011;12945;42.648;23.370;2023-12-29T13:24:07;41.73;;;20.80;;
24873;SDS011;12945;42.648;23.370;2023-12-29T13:26:32;39.88;;;20.42;;
24873;SDS011;12945;42.648;23.370;2023-12-29T13:28:58;31.67;;;19.80;;
24873;SDS011;12945;42.648;23.370;2023-12-29T13:31:24;36.90;;;19.83;;
24873;SDS011;12945;42.648;23.370;2023-12-29T13:36:21;31.23;;;19.05;;
24873;SDS011;12945;42.648;23.370;2023-12-29T13:38:51;31.60;;;18.98;;
24873;SDS011;12945;42.648;23.370;2023-12-29T13:41:18;41.30;;;18.23;;
24873;SDS011;12945;42.648;23.370;2023-12-29T13:43:45;32.20;;;15.95;;
24873;SDS011;12945;42.648;23.370;2023-12-29T13:46:11;24.95;;;16.38;;
24873;SDS011;12945;42.648;23.370;2023-12-29T13:48:36;29.38;;;16.42;;
24873;SDS011;12945;42.648;23.370;2023-12-29T13:51:02;30.88;;;16.33;;
24873;SDS011;12945;42.648;23.370;2023-12-29T13:53:27;29.90;;;13.80;;
24873;SDS011;12945;42.648;23.370;2023-12-29T13:55:54;30.35;;;15.32;;
24873;SDS011;12945;42.648;23.370;2023-12-29T13:58:30;26.58;;;13.57;;
24873;SDS011;12945;42.648;23.370;2023-12-29T14:00:56;26.00;;;14.80;;
24873;SDS011;12945;42.648;23.370;2023-12-29T14:03:23;25.90;;;11.73;;
24873;SDS011;12945;42.648;23.370;2023-12-29T14:05:52;23.50;;;12.45;;
24873;SDS011;12945;42.648;23.370;2023-12-29T14:08:24;22.55;;;11.82;;
24873;SDS011;12945;42.648;23.370;2023-12-29T14:10:50;24.90;;;11.82;;
24873;SDS011;12945;42.648;23.370;2023-12-29T14:13:16;34.25;;;17.33;;
24873;SDS011;12945;42.648;23.370;2023-12-29T14:15:42;33.42;;;16.98;;
24873;SDS011;12945;42.648;23.370;2023-12-29T14:20:39;31.67;;;15.32;;
24873;SDS011;12945;42.648;23.370;2023-12-29T14:23:05;56.42;;;27.70;;
24873;SDS011;12945;42.648;23.370;2023-12-29T14:25:32;47.78;;;21.58;;
24873;SDS011;12945;42.648;23.370;2023-12-29T14:28:00;64.50;;;32.78;;
24873;SDS011;12945;42.648;23.370;2023-12-29T14:30:26;63.65;;;30.67;;